createdAt,value
2018-12-12T04:17:19.012Z,12.45
2018-12-12T04:19:47.576Z,9.88
2018-12-12T04:22:17.183Z,14.80
2018-12-12T04:24:46.354Z,13.90
2018-12-12T04:27:14.812Z,13.73
2018-12-12T04:29:43.406Z,15.97
2018-12-12T04:32:11.782Z,14.03
2018-12-12T04:35:25.134Z,17.17
2018-12-12T04:37:53.732Z,9.90
2018-12-12T04:40:22.472Z,17.57
2018-12-12T04:42:50.776Z,12.17
2018-12-12T04:45:19.379Z,15.65
2018-12-12T04:47:47.670Z,32.03
2018-12-12T04:50:16.307Z,18.03
2018-12-12T04:52:44.602Z,13.83
2018-12-12T04:55:13.155Z,11.15
2018-12-12T04:57:41.719Z,15.13
2018-12-12T05:00:11.038Z,13.80
2018-12-12T05:02:40.322Z,15.88
2018-12-12T05:05:08.922Z,22.50
2018-12-12T05:07:37.293Z,20.50
2018-12-12T05:10:06.729Z,15.90
2018-12-12T05:12:35.041Z,20.40
2018-12-12T05:15:04.062Z,15.60
2018-12-12T05:17:32.620Z,17.52
2018-12-12T05:20:01.744Z,18.40
2018-12-12T05:22:30.312Z,20.87
2018-12-12T05:24:58.595Z,16.40
2018-12-12T05:27:26.925Z,25.43
2018-12-12T05:29:55.761Z,19.50
2018-12-12T05:32:24.206Z,18.37
2018-12-12T05:34:52.628Z,20.70
2018-12-12T05:37:21.071Z,15.83
2018-12-12T05:39:49.366Z,21.00
2018-12-12T05:42:18.092Z,23.63
2018-12-12T05:44:46.705Z,19.32
2018-12-12T05:47:15.003Z,25.27
2018-12-12T05:49:43.491Z,20.67
2018-12-12T05:52:11.866Z,22.20
2018-12-12T05:54:40.176Z,27.00
2018-12-12T05:57:08.518Z,33.73
2018-12-12T05:59:37.458Z,30.10
2018-12-12T06:02:06.207Z,25.30
2018-12-12T06:04:34.703Z,28.17
2018-12-12T06:07:03.765Z,27.97
2018-12-12T06:09:32.491Z,25.37
2018-12-12T06:12:01.048Z,24.20
2018-12-12T06:14:29.647Z,20.52
2018-12-12T06:16:57.925Z,24.23
2018-12-12T06:19:26.218Z,25.27
2018-12-12T06:21:54.540Z,19.37
2018-12-12T06:24:22.890Z,25.10
2018-12-12T06:26:51.487Z,32.13
2018-12-12T06:29:19.809Z,28.70
2018-12-12T06:31:48.361Z,24.37
2018-12-12T06:34:16.654Z,24.53
2018-12-12T06:36:44.941Z,21.93
2018-12-12T06:39:13.233Z,28.83
2018-12-12T06:41:41.545Z,25.73
2018-12-12T06:44:09.945Z,21.40
2018-12-12T06:46:38.199Z,23.10
2018-12-12T06:49:07.015Z,24.57
2018-12-12T06:51:35.648Z,38.53
2018-12-12T06:54:04.245Z,23.63
2018-12-12T06:56:32.529Z,29.37
2018-12-12T06:59:00.899Z,23.87
2018-12-12T07:01:29.329Z,29.17
2018-12-12T07:04:01.346Z,26.00
2018-12-12T07:06:30.038Z,30.85
2018-12-12T07:08:58.631Z,30.70
2018-12-12T07:11:27.104Z,30.43
2018-12-12T07:13:55.417Z,40.20
2018-12-12T07:16:23.793Z,32.13
2018-12-12T07:18:52.376Z,29.23
2018-12-12T07:21:20.690Z,32.53
2018-12-12T07:23:49.307Z,31.62
2018-12-12T07:26:17.611Z,39.73
2018-12-12T07:28:46.049Z,33.03
2018-12-12T07:31:14.377Z,29.50
2018-12-12T07:33:42.996Z,26.97
2018-12-12T07:36:11.466Z,37.97
2018-12-12T07:38:39.850Z,30.60
2018-12-12T07:41:08.379Z,26.93
2018-12-12T07:43:36.978Z,29.73
2018-12-12T07:46:05.795Z,30.50
2018-12-12T07:48:34.311Z,41.77
2018-12-12T07:51:02.877Z,46.68
2018-12-12T07:53:31.164Z,32.93
2018-12-12T07:55:59.730Z,35.35
2018-12-12T07:58:28.335Z,31.27
2018-12-12T08:00:56.924Z,28.33
2018-12-12T08:03:25.585Z,35.23
2018-12-12T08:05:54.404Z,34.50
2018-12-12T08:08:22.801Z,40.37
2018-12-12T08:10:51.478Z,33.07
2018-12-12T08:13:20.096Z,46.45
2018-12-12T08:15:48.378Z,33.33
2018-12-12T08:18:17.246Z,31.87
2018-12-12T08:20:45.833Z,29.17
2018-12-12T08:23:14.717Z,32.53
2018-12-12T08:25:43.510Z,35.50
2018-12-12T08:28:12.062Z,33.53
2018-12-12T08:30:40.470Z,39.40
2018-12-12T08:33:11.346Z,39.03
2018-12-12T08:35:39.363Z,39.70
2018-12-12T08:38:08.351Z,42.27
2018-12-12T08:40:36.749Z,34.40
2018-12-12T08:43:05.251Z,34.00
2018-12-12T08:45:33.868Z,41.83
2018-12-12T08:48:02.355Z,27.50
2018-12-12T08:50:30.942Z,36.40
2018-12-12T08:52:59.861Z,32.23
2018-12-12T08:55:28.539Z,27.87
2018-12-12T08:57:57.137Z,32.53
2018-12-12T09:00:25.558Z,38.10
2018-12-12T09:02:54.158Z,27.35
2018-12-12T09:05:22.799Z,31.13
2018-12-12T09:07:51.109Z,34.17
2018-12-12T09:10:19.377Z,32.00
2018-12-12T09:12:48.950Z,29.35
2018-12-12T09:15:17.522Z,24.43
2018-12-12T09:17:45.835Z,28.53
2018-12-12T09:20:14.434Z,28.03
2018-12-12T09:22:42.762Z,26.90
2018-12-12T09:25:11.321Z,28.15
2018-12-12T09:27:39.737Z,24.50
2018-12-12T09:30:09.121Z,28.73
2018-12-12T09:32:37.410Z,38.37
2018-12-12T09:35:06.918Z,21.03
2018-12-12T09:37:35.464Z,26.12
2018-12-12T09:40:04.965Z,30.87
2018-12-12T09:42:33.833Z,29.17
2018-12-12T09:45:02.393Z,31.10
2018-12-12T09:47:31.097Z,39.63
2018-12-12T09:49:59.383Z,34.97
2018-12-12T09:52:27.690Z,33.17
2018-12-12T09:54:55.971Z,26.13
2018-12-12T09:57:24.736Z,27.83
2018-12-12T09:59:53.321Z,31.30
2018-12-12T10:02:21.984Z,26.13
2018-12-12T10:04:50.288Z,33.33
2018-12-12T10:07:18.577Z,37.00
2018-12-12T10:09:46.895Z,25.47
2018-12-12T10:12:15.202Z,31.97
2018-12-12T10:14:43.689Z,38.33
2018-12-12T10:17:11.986Z,33.57
2018-12-12T10:19:40.683Z,28.80
2018-12-12T10:22:09.206Z,31.40
2018-12-12T10:24:37.529Z,27.40
2018-12-12T10:27:06.574Z,33.00
2018-12-12T10:29:35.144Z,28.03
2018-12-12T10:32:03.705Z,27.95
2018-12-12T10:34:31.986Z,27.93
2018-12-12T10:37:00.556Z,30.77
2018-12-12T10:39:29.125Z,30.65
2018-12-12T10:41:57.386Z,33.87
2018-12-12T10:44:26.412Z,29.30
2018-12-12T10:46:55.339Z,35.30
2018-12-12T10:49:23.930Z,32.20
2018-12-12T10:51:52.791Z,25.45
2018-12-12T10:54:21.374Z,32.10
2018-12-12T10:56:50.801Z,28.70
2018-12-12T10:59:19.145Z,34.80
2018-12-12T11:01:48.007Z,28.47
2018-12-12T11:04:18.250Z,32.90
2018-12-12T11:06:47.250Z,28.10
2018-12-12T11:09:15.713Z,39.17
2018-12-12T11:11:44.579Z,33.53
2018-12-12T11:14:12.954Z,28.50
2018-12-12T11:16:42.118Z,29.33
2018-12-12T11:19:10.678Z,27.58
2018-12-12T11:21:38.969Z,31.83
2018-12-12T11:24:07.984Z,27.87
2018-12-12T11:26:36.602Z,28.52
2018-12-12T11:29:06.015Z,37.60
2018-12-12T11:31:34.471Z,29.57
2018-12-12T11:34:02.978Z,28.43
2018-12-12T11:36:31.566Z,34.57
2018-12-12T11:39:00.117Z,34.23
2018-12-12T11:41:28.700Z,29.63
2018-12-12T11:43:57.232Z,28.23
2018-12-12T11:46:26.245Z,28.67
2018-12-12T11:48:54.536Z,40.07
2018-12-12T11:51:23.093Z,31.00
2018-12-12T11:53:51.508Z,32.80
2018-12-12T11:56:20.015Z,33.87
2018-12-12T11:58:48.594Z,26.57
2018-12-12T12:01:17.287Z,31.10
2018-12-12T12:03:45.557Z,30.80
2018-12-12T12:06:13.847Z,29.87
2018-12-12T12:08:42.403Z,30.90
2018-12-12T12:11:10.715Z,30.53
2018-12-12T12:13:39.210Z,27.00
2018-12-12T12:16:07.877Z,27.48
2018-12-12T12:18:36.404Z,43.27
2018-12-12T12:21:04.987Z,38.10
2018-12-12T12:23:33.285Z,32.90
2018-12-12T12:26:01.657Z,31.27
2018-12-12T12:28:30.125Z,30.03
2018-12-12T12:30:58.519Z,30.27
2018-12-12T12:33:26.777Z,31.73
2018-12-12T12:35:55.062Z,34.63
2018-12-12T12:38:23.546Z,29.10
2018-12-12T12:40:52.098Z,34.17
2018-12-12T12:43:21.425Z,30.40
2018-12-12T12:45:50.001Z,31.80
2018-12-12T12:48:18.592Z,35.55
2018-12-12T12:50:47.202Z,28.47
2018-12-12T12:53:15.790Z,31.07
2018-12-12T12:55:44.086Z,37.17
2018-12-12T12:58:12.658Z,26.47
2018-12-12T13:00:41.179Z,33.97
2018-12-12T13:03:09.805Z,31.47
2018-12-12T13:05:38.121Z,24.80
2018-12-12T13:08:06.764Z,28.00
2018-12-12T13:10:35.746Z,35.07
2018-12-12T13:13:05.114Z,27.00
2018-12-12T13:15:34.845Z,34.20
2018-12-12T13:18:04.164Z,29.53
2018-12-12T13:20:32.610Z,31.27
2018-12-12T13:23:01.910Z,42.63
2018-12-12T13:25:30.520Z,28.33
2018-12-12T13:27:59.180Z,34.63
2018-12-12T13:30:27.454Z,34.80
2018-12-12T13:32:56.182Z,30.03
2018-12-12T13:35:24.738Z,30.03
2018-12-12T13:37:53.142Z,29.13
2018-12-12T13:40:22.131Z,29.35
2018-12-12T13:42:50.635Z,26.67
2018-12-12T13:45:19.358Z,28.63
2018-12-12T13:47:48.078Z,30.63
2018-12-12T13:50:16.534Z,36.70
2018-12-12T13:52:44.811Z,30.07
2018-12-12T13:55:14.636Z,26.77
2018-12-12T13:57:42.930Z,39.30
2018-12-12T14:00:12.494Z,35.13
2018-12-12T14:02:41.266Z,30.15
2018-12-12T14:05:10.246Z,26.40
2018-12-12T14:07:38.540Z,40.50
2018-12-12T14:10:07.341Z,30.90
2018-12-12T14:12:35.722Z,30.27
2018-12-12T14:15:04.894Z,29.33
2018-12-12T14:17:33.294Z,27.90
2018-12-12T14:20:01.879Z,29.17
2018-12-12T14:22:30.194Z,28.10
2018-12-12T14:24:59.073Z,26.65
2018-12-12T14:27:28.077Z,31.07
2018-12-12T14:29:57.233Z,28.10
2018-12-12T14:32:25.527Z,30.33
2018-12-12T14:34:56.648Z,29.30
2018-12-12T14:37:24.998Z,29.10
2018-12-12T14:39:53.796Z,26.82
2018-12-12T14:42:22.497Z,32.20
2018-12-12T14:44:50.933Z,37.97
2018-12-12T14:47:19.501Z,31.30
2018-12-12T14:49:47.784Z,29.07
2018-12-12T14:52:16.332Z,31.33
2018-12-12T14:55:30.010Z,23.37
2018-12-12T14:57:58.437Z,26.73
2018-12-12T15:00:27.737Z,27.07
2018-12-12T15:02:56.281Z,29.93
2018-12-12T15:05:25.297Z,28.43
2018-12-12T15:07:53.678Z,39.57
2018-12-12T15:10:22.198Z,25.87
2018-12-12T15:12:50.739Z,31.57
2018-12-12T15:15:19.080Z,30.20
2018-12-12T15:17:47.453Z,38.10
2018-12-12T15:20:15.852Z,25.77
2018-12-12T15:22:44.262Z,26.93
2018-12-12T15:25:13.210Z,21.57
2018-12-12T15:27:41.830Z,23.00
2018-12-12T15:30:10.919Z,28.55
2018-12-12T15:32:39.346Z,26.80
2018-12-12T15:35:07.721Z,27.53
2018-12-12T15:37:36.031Z,25.83
2018-12-12T15:40:05.879Z,29.23
2018-12-12T15:42:35.413Z,31.70
2018-12-12T15:45:04.197Z,30.83
2018-12-12T15:47:32.591Z,29.10
2018-12-12T15:50:01.201Z,27.65
2018-12-12T15:52:29.886Z,28.37
2018-12-12T15:54:58.182Z,30.97
2018-12-12T15:57:26.636Z,30.30
2018-12-12T15:59:55.355Z,29.97
2018-12-12T16:02:23.805Z,25.67
2018-12-12T16:04:52.314Z,32.70
2018-12-12T16:07:20.606Z,27.97
2018-12-12T16:09:49.199Z,31.67
2018-12-12T16:12:17.830Z,40.10
2018-12-12T16:14:46.136Z,45.40
2018-12-12T16:17:14.400Z,38.70
2018-12-12T16:19:42.915Z,37.37
2018-12-12T16:22:11.854Z,37.80
2018-12-12T16:24:50.493Z,32.33
2018-12-12T16:31:00.567Z,30.73
2018-12-12T16:36:26.767Z,34.18
2018-12-12T16:38:58.152Z,29.70
2018-12-12T16:41:32.799Z,35.83
2018-12-12T16:44:05.542Z,30.67
2018-12-12T16:46:36.281Z,29.93
2018-12-12T16:49:13.822Z,27.37
2018-12-12T16:51:50.130Z,28.70
2018-12-12T16:54:25.109Z,33.85
2018-12-12T16:56:53.651Z,30.37
2018-12-12T16:59:22.501Z,24.52
2018-12-12T17:01:50.958Z,26.33
2018-12-12T17:04:19.662Z,18.98
2018-12-12T17:06:48.329Z,21.40
2018-12-12T17:09:17.309Z,25.90
2018-12-12T17:11:45.928Z,28.02
2018-12-12T17:14:14.241Z,21.70
2018-12-12T17:16:42.837Z,21.70
2018-12-12T17:19:11.588Z,19.93
2018-12-12T17:21:40.032Z,21.33
2018-12-12T17:24:08.556Z,22.10
2018-12-12T17:26:37.148Z,19.77
2018-12-12T17:29:05.459Z,19.20
2018-12-12T17:31:34.477Z,19.73
2018-12-12T17:34:02.899Z,16.33
2018-12-12T17:36:31.384Z,17.47
2018-12-12T17:38:59.822Z,15.00
2018-12-12T17:41:28.979Z,14.43
2018-12-12T17:43:57.612Z,14.05
2018-12-12T17:46:26.614Z,16.77
2018-12-12T17:48:55.530Z,15.63
2018-12-12T17:51:24.288Z,18.07
2018-12-12T17:53:53.092Z,13.85
2018-12-12T17:56:21.893Z,19.97
2018-12-12T17:58:50.703Z,18.05
2018-12-12T18:01:19.554Z,22.37
2018-12-12T18:03:48.054Z,12.47
2018-12-12T18:06:17.490Z,15.10
2018-12-12T18:08:46.448Z,14.75
2018-12-12T18:11:15.039Z,15.53
2018-12-12T18:13:43.617Z,16.48
2018-12-12T18:16:12.476Z,17.55
2018-12-12T18:18:41.340Z,15.05
2018-12-12T18:21:10.122Z,18.60
2018-12-12T18:23:38.786Z,16.70
2018-12-12T18:26:07.368Z,19.70
2018-12-12T18:28:36.398Z,17.43
2018-12-12T18:31:05.337Z,15.48
2018-12-12T18:33:33.874Z,15.27
2018-12-12T18:36:02.645Z,14.98
2018-12-12T18:38:31.872Z,12.83
2018-12-12T18:41:00.338Z,14.37
2018-12-12T18:43:28.937Z,13.80
2018-12-12T18:45:57.827Z,13.67
2018-12-12T18:48:27.316Z,14.58
2018-12-12T18:55:56.886Z,19.37
2018-12-12T18:58:25.799Z,13.30
2018-12-12T19:00:54.753Z,14.15
2018-12-12T19:03:25.228Z,16.60
2018-12-12T19:05:54.010Z,13.03
2018-12-12T19:08:22.553Z,17.43
2018-12-12T19:10:51.683Z,18.15
2018-12-12T19:13:20.523Z,15.60
2018-12-12T19:15:49.725Z,11.73
2018-12-12T19:18:18.402Z,16.67
2018-12-12T19:20:46.970Z,14.93
2018-12-12T19:23:16.005Z,15.60
2018-12-12T19:25:44.347Z,15.90
2018-12-12T19:28:12.661Z,18.50
2018-12-12T19:30:41.101Z,18.90
2018-12-12T19:33:09.454Z,15.87
2018-12-12T19:35:37.916Z,14.17
2018-12-12T19:38:06.542Z,16.47
2018-12-12T19:40:34.885Z,13.50
2018-12-12T19:43:03.180Z,20.20
2018-12-12T19:45:31.468Z,18.30
2018-12-12T19:47:59.767Z,15.90
2018-12-12T19:50:28.346Z,14.25
2018-12-12T19:52:57.053Z,17.53
2018-12-12T19:55:25.798Z,16.80
2018-12-12T19:57:54.250Z,14.47
2018-12-12T20:00:22.794Z,12.57
2018-12-12T20:02:51.095Z,15.77
2018-12-12T20:05:19.411Z,11.45
2018-12-12T20:07:47.698Z,16.27
2018-12-12T20:10:16.262Z,17.57
2018-12-12T20:12:45.077Z,12.33
2018-12-12T20:15:18.903Z,16.37
2018-12-12T20:17:47.469Z,18.87
2018-12-12T20:20:16.081Z,13.27
2018-12-12T20:22:45.066Z,12.33
2018-12-12T20:25:14.223Z,13.78
2018-12-12T20:27:42.835Z,13.85
2018-12-12T20:30:11.443Z,17.60
2018-12-12T20:32:39.783Z,17.20
2018-12-12T20:35:08.490Z,18.60
2018-12-12T20:37:37.166Z,20.00
2018-12-12T20:40:06.727Z,18.07
2018-12-12T20:42:35.451Z,17.77
2018-12-12T20:45:05.052Z,15.00
2018-12-12T20:47:33.365Z,18.50
2018-12-12T20:50:02.078Z,20.77
2018-12-12T20:52:30.526Z,20.57
2018-12-12T20:54:59.018Z,20.30
2018-12-12T20:57:27.290Z,18.23
2018-12-12T20:59:55.874Z,20.12
2018-12-12T21:02:24.435Z,20.37
2018-12-12T21:04:52.937Z,21.13
2018-12-12T21:07:21.294Z,23.03
2018-12-12T21:09:49.854Z,20.82
2018-12-12T21:12:18.358Z,21.70
2018-12-12T21:14:46.715Z,19.43
2018-12-12T21:17:15.851Z,22.27
2018-12-12T21:19:44.654Z,22.73
2018-12-12T21:22:13.287Z,23.93
2018-12-12T21:24:41.564Z,24.00
2018-12-12T21:27:09.880Z,22.37
2018-12-12T21:29:38.201Z,22.80
2018-12-12T21:32:06.458Z,21.40
2018-12-12T21:34:35.170Z,20.97
2018-12-12T21:37:04.435Z,23.75
2018-12-12T21:39:32.953Z,23.47
2018-12-12T21:42:01.473Z,25.13
2018-12-12T21:44:30.081Z,30.37
2018-12-12T21:46:58.642Z,28.13
2018-12-12T21:49:27.375Z,24.90
2018-12-12T21:51:55.782Z,28.43
2018-12-12T21:54:24.348Z,25.13
2018-12-12T21:56:57.486Z,26.47
2018-12-12T21:59:25.909Z,27.63
2018-12-12T22:01:55.658Z,26.42
2018-12-12T22:04:23.955Z,24.93
2018-12-12T22:06:52.314Z,25.23
2018-12-12T22:09:20.602Z,21.93
2018-12-12T22:11:49.071Z,24.80
2018-12-12T22:14:17.637Z,30.50
2018-12-12T22:16:48.199Z,28.30
2018-12-12T22:19:16.542Z,21.70
2018-12-12T22:21:44.858Z,23.20
2018-12-12T22:24:13.146Z,17.53
2018-12-12T22:26:41.582Z,19.90
2018-12-12T22:29:09.887Z,20.60
2018-12-12T22:31:38.843Z,18.03
2018-12-12T22:34:07.339Z,20.30
2018-12-12T22:36:36.146Z,22.10
2018-12-12T22:39:08.149Z,19.13
2018-12-12T22:41:36.508Z,17.00
2018-12-12T22:44:05.253Z,19.52
2018-12-12T22:46:33.705Z,17.00
2018-12-12T22:49:02.111Z,17.33
2018-12-12T22:51:31.042Z,14.18
2018-12-12T22:53:59.480Z,14.17
2018-12-12T22:56:27.807Z,15.43
2018-12-12T22:58:57.714Z,15.65
